• Join FlightAware (Why Join?)
  • Login
  • US Flag 
Gobble Gobble! 
10:30PM EST


 

Airport Tracker/Info


-or-


 

Live Flight TrackerFlight Track Log ✈ FLG3735 ✈ 08-Aug-2013 ✈ KDTW - KALB

Flight Track Log - Related Links

Times and Time Zones

All times are in EDT time to prevent confusion due to time zone crossing. See the FLG3735 flight status page for this flight to view local times or setup timezone preferences in your user account.

Time Position Orientation Groundspeed Altitude Reporting Facility
EDT Latitude Longitude Course Direction KTS MPH feet Rate Location/Type
10:17PM 42.2375 -83.3317 31° Northeast 159 183 1,500  Level Cleveland Center
10:18PM 42.2928 -83.2864 31° Northeast 208 239 3,900 1,740 Climbing Cleveland Center
10:19PM 42.3525 -83.2356 32° Northeast 281 323 5,400 1,920 Climbing Cleveland Center
10:20PM 42.3958 -83.1614 52° Northeast 294 338 7,600 2,220 Climbing Cleveland Center
10:21PM 42.3786 -83.0961 110° East 281 323 8,900 1,980 Climbing Cleveland Center
10:22PM 42.3494 -82.9994 112° Southeast 318 366 10,900 1,560 Climbing Cleveland Center
10:23PM 42.3225 -82.8803 107° East 330 380 12,100 1,200 Climbing Cleveland Center
10:24PM 42.2939 -82.7503 107° East 341 392 13,400 1,260 Climbing Cleveland Center
10:25PM 42.2608 -82.6144 108° East 359 413 14,700 1,380 Climbing Cleveland Center
10:26PM 42.2300 -82.4761 107° East 379 436 16,200 1,440 Climbing Cleveland Center
10:27PM 42.2156 -82.3325 98° East 379 436 17,600 1,200 Climbing Cleveland Center
10:28PM 42.2406 -82.1819 77° East 379 436 18,700 900 Climbing Cleveland Center
10:29PM 42.2719 -82.0169 76° East 398 458 19,400 660 Climbing Cleveland Center
10:30PM 42.3008 -81.8578 76° East 413 475 20,100 720 Climbing Cleveland Center
10:31PM 42.3297 -81.7011 76° East 429 494 20,900 720 Climbing Cleveland Center
10:32PM 42.3561 -81.5356 78° East 436 502 21,600 660 Climbing Cleveland Center
10:33PM 42.3886 -81.3731 75° East 441 507 22,300 660 Climbing Cleveland Center
10:34PM 42.4169 -81.2047 77° East 449 517 23,000 600 Climbing Cleveland Center
10:35PM 42.4406 -81.0586 78° East 454 522 23,600 540 Climbing Cleveland Center
10:36PM 42.4722 -80.8872 76° East 454 522 24,100 480 Climbing Cleveland Center
10:37PM 42.4997 -80.7128 78° East 454 522 24,600 480 Climbing Cleveland Center
10:38PM 42.5289 -80.5408 77° East 465 535 25,100 480 Climbing Cleveland Center
10:39PM 42.5581 -80.3717 77° East 466 536 25,600 540 Climbing Cleveland Center
10:40PM 42.5847 -80.1939 78° East 471 542 26,200 540 Climbing Cleveland Center
10:41PM 42.6172 -80.0019 77° East 466 536 26,700 480 Climbing Cleveland Center
10:42PM 42.6494 -79.8294 76° East 471 542 27,200 480 Climbing Cleveland Center
10:43PM 42.6775 -79.6542 78° East 471 542 27,700 480 Climbing Cleveland Center
10:44PM 42.7008 -79.4814 80° East 471 542 28,200 480 Climbing Cleveland Center
10:45PM 42.7303 -79.3056 77° East 471 542 28,700 360 Climbing Cleveland Center
10:46PM 42.7553 -79.1297 79° East 471 542 29,000 120 Climbing Cleveland Center
10:47PM 42.7842 -78.9508 78° East 471 542 29,000  Level Cleveland Center
10:48PM 42.8106 -78.7661 79° East 476 548 29,000  Level Cleveland Center
10:49PM 42.8367 -78.5814 79° East 487 560 29,000  Level Cleveland Center
10:50PM 42.8647 -78.3964 78° East 492 566 29,000  Level Cleveland Center
10:51PM 42.8922 -78.2083 79° East 492 566 29,000  Level Cleveland Center
10:52PM 42.9194 -78.0175 79° East 502 578 29,000  Level Cleveland Center
10:53PM 42.9464 -77.8261 79° East 507 583 29,000  Level Cleveland Center
10:54PM 42.9728 -77.6322 79° East 507 583 29,000  Level Cleveland Center
10:55PM 42.9967 -77.3550 83° East 521 600 29,000  Level Boston Center
10:56PM 42.9864 -77.1583 94° East 515 593 29,000  Level Boston Center
10:57PM 42.9753 -76.9672 94° East 515 593 29,000  Level Boston Center
10:58PM 42.9622 -76.7703 95° East 515 593 29,000  Level Boston Center
10:59PM 42.9511 -76.5567 94° East 515 593 29,000  Level Boston Center
11:00PM 42.9392 -76.3658 95° East 515 593 29,000 -120 Level Boston Center
11:01PM 42.9250 -76.1719 96° East 515 593 28,800 -660 Descending Boston Center
11:02PM 42.9142 -75.9814 94° East 509 586 27,800 -1,020 Descending Boston Center
11:03PM 42.9011 -75.7933 95° East 499 574 26,800 -1,020 Descending Boston Center
11:04PM 42.8878 -75.6114 96° East 494 568 25,800 -1,020 Descending Boston Center
11:05PM 42.8739 -75.4319 96° East 484 557 24,800 -1,740 Descending Boston Center
11:06PM 42.8617 -75.2531 95° East 484 557 22,300 -2,460 Descending Boston Center
11:07PM 42.8511 -75.0853 95° East 466 536 19,800 -2,520 Descending Boston Center
11:08PM 42.8381 -74.9233 96° East 449 517 17,300 -2,520 Descending Boston Center
11:09PM 42.8267 -74.7756 96° East 407 468 14,900 -2,220 Descending Boston Center
11:10PM 42.8219 -74.6933 94° East 371 427 13,800 -2,160 Descending Boston Center
11:11PM 42.8103 -74.5403 96° East 349 402 11,300 -1,500 Descending Boston Center
11:12PM 42.8106 -74.4156 90° East 328 377 10,700 -1,020 Descending Boston Center
11:13PM 42.8333 -74.3031 75° East 297 342 9,300 -1,680 Descending Boston Center
11:14PM 42.8536 -74.1961 75° East 285 328 7,400 -1,920 Descending Boston Center
11:15PM 42.8742 -74.0889 75° East 289 333 5,500 -1,860 Descending Boston Center
11:16PM 42.8942 -73.9847 75° East 287 330 3,700 -1,620 Descending Boston Center
11:17PM 42.9122 -73.8858 76° East 256 295 2,300 -840 Descending Boston Center
11:18PM 42.8881 -73.8203 117° Southeast 182 209 2,100 -180 Descending Boston Center
11:19PM 42.8464 -73.8136 173° South 143 165 2,000 -420 Descending Boston Center
11:20PM 42.8089 -73.8100 176° South 116 133 1,300 -660 Descending Boston Center
11:21PM 42.7736 -73.8092 179° South 125 144 700 -600 Descending Boston Center